Jp Tsubaki — JD2817 — position and weather

sailwx.info

Track history (hours):
 
Tides and Currents Weather Stations Pressure Air Temp Water Temp Dewpoint Dewpoint Depression Visibility Wind Speed Wind Dir Waves Ship Positions

Jp Tsubaki

Last reported at 2016-May-06 09:33 UTC. Time now 2016-May-27 12:16 UTC.
Position N 34°35' E 134°54'.
Warning: this ship's position is 21 days out of date.

Length 115 m; draft 4.8 m.

Type: Cargo ship. MMSI: 431000734.

Date/timePositionNaut miles runAvg speedWind from/ knotsBaromVisibWave heightAir tempDewpointWater temp
2016-May-06 09:33N 34°35' E 134°54'1010.1
2016-May-06 08:34N 34°31' E 135°05'1514.3
2016-May-06 07:31N 34°17' E 134°59'1212.7
2016-May-06 06:33N 34°05' E 134°59'22310.1
2016-May-05 08:29N 34°54' E 139°23'1112.1
2016-May-05 07:33N 35°01' E 139°33'1212.2
2016-May-05 06:33N 35°09' E 139°45'1110.9
2016-May-05 05:33N 35°19' E 139°43'6 5.8
2016-May-05 04:33N 35°24' E 139°39'0 0.0
2016-May-05 03:32N 35°24' E 139°39'0 0.0
2016-May-05 02:32N 35°24' E 139°39'0 0.0
2016-May-05 01:32N 35°24' E 139°39'0 0.0
2016-May-05 00:32N 35°24' E 139°39'0 0.2
2016-May-04 23:34N 35°24' E 139°38'9 9.1
2016-May-04 22:31N 35°26' E 139°50'0 0.1
2016-May-04 21:31N 35°26' E 139°50'0 0.0
2016-May-04 20:21N 35°26' E 139°50'0 0.0
2016-May-04 19:33N 35°26' E 139°50'0 0.0
2016-May-04 18:33N 35°26' E 139°50'0 0.0
2016-May-04 17:29N 35°26' E 139°50'0 0.1
2016-May-04 16:32N 35°26' E 139°50'0 0.1
2016-May-04 15:33N 35°26' E 139°50'0 0.0
2016-May-04 14:31N 35°26' E 139°50'0 0.1
2016-May-04 13:28N 35°26' E 139°50'0 0.0
2016-May-04 12:32N 35°26' E 139°50'0 0.0
2016-May-04 11:34N 35°26' E 139°50'0 0.0
2016-May-04 10:28N 35°26' E 139°50'0 0.1
2016-May-04 09:34N 35°26' E 139°50'0 0.0
2016-May-04 08:26N 35°26' E 139°50'0 0.0
2016-May-04 07:33N 35°26' E 139°50'0 0.1
2016-May-04 06:26N 35°26' E 139°50'0 0.0
2016-May-04 05:29N 35°26' E 139°50'0 0.0
2016-May-04 04:33N 35°26' E 139°50'0 0.0
2016-May-04 03:33N 35°26' E 139°50'0 0.1
2016-May-04 02:33N 35°26' E 139°50'0 0.0
2016-May-04 01:31N 35°26' E 139°50'0 0.0
2016-May-04 00:32N 35°26' E 139°50'0 0.0
2016-May-03 23:28N 35°26' E 139°50'0 0.1
2016-May-03 22:25N 35°26' E 139°50'0 0.2
2016-May-03 21:32N 35°26' E 139°50'0 0.1
2016-May-03 20:33N 35°26' E 139°50'0 0.0
2016-May-03 19:27N 35°26' E 139°50'0 0.1
2016-May-03 18:34N 35°26' E 139°50'0 0.1
2016-May-03 17:32N 35°26' E 139°50'0 0.0
2016-May-03 16:31N 35°26' E 139°50'0 0.1
2016-May-03 15:33N 35°26' E 139°50'9 9.2
2016-May-03 14:33N 35°24' E 139°39'0 0.3
2016-May-03 13:33N 35°24' E 139°39'0 0.0
2016-May-03 12:33N 35°24' E 139°39'0 0.0
2016-May-03 11:30N 35°24' E 139°39'0 0.0
2016-May-03 10:30N 35°24' E 139°39'0 0.0
2016-May-03 09:33N 35°24' E 139°39'0 0.0
2016-May-03 08:33N 35°24' E 139°39'5 5.0
2016-May-03 07:33N 35°26' E 139°44'4 4.3
2016-May-03 06:33N 35°30' E 139°44'0 0.1
2016-May-03 05:31N 35°30' E 139°44'0 0.0
2016-May-03 04:28N 35°30' E 139°44'0 0.0
2016-May-03 03:31N 35°30' E 139°44'0 0.0
2016-May-03 02:31N 35°30' E 139°44'0 0.0
2016-May-03 01:31N 35°30' E 139°44'0 0.0
2016-May-03 00:31N 35°30' E 139°44'2 2.4
2016-May-02 23:33N 35°28' E 139°42'5 5.0
2016-May-02 22:33N 35°24' E 139°39'0 0.0
2016-May-02 21:31N 35°24' E 139°39'0 0.1
2016-May-02 20:31N 35°24' E 139°39'0 0.1
2016-May-02 19:31N 35°24' E 139°39'0 0.0
2016-May-02 18:31N 35°24' E 139°39'0 0.0
2016-May-02 17:28N 35°24' E 139°39'0 0.0
2016-May-02 16:31N 35°24' E 139°39'0 0.0
2016-May-02 15:31N 35°24' E 139°39'0 0.0
2016-May-02 14:31N 35°24' E 139°39'0 0.0
2016-May-02 13:31N 35°24' E 139°39'0 0.0
2016-May-02 12:31N 35°24' E 139°39'0 0.0
2016-May-02 11:31N 35°24' E 139°39'0 0.0
2016-May-02 10:31N 35°24' E 139°39'0 0.0
2016-May-02 09:31N 35°24' E 139°39'0 0.0
2016-May-02 08:31N 35°24' E 139°39'0 0.0
2016-May-02 07:31N 35°24' E 139°39'0 0.0
2016-May-02 06:31N 35°24' E 139°39'0 0.0
2016-May-02 05:33N 35°24' E 139°39'6 6.0
2016-May-02 04:34N 35°27' E 139°45'3 3.5
2016-May-02 03:34N 35°30' E 139°44'0 0.0
2016-May-02 02:33N 35°30' E 139°44'0 0.0
2016-May-02 01:34N 35°30' E 139°44'0 0.0
2016-May-02 00:34N 35°30' E 139°44'0 0.0
2016-May-01 23:33N 35°30' E 139°44'0 0.0
2016-May-01 22:34N 35°30' E 139°44'0 0.0
2016-May-01 21:34N 35°30' E 139°44'0 0.0
2016-May-01 20:34N 35°30' E 139°44'0 0.0
2016-May-01 19:34N 35°30' E 139°44'0 0.0
2016-May-01 18:34N 35°30' E 139°44'0 0.0
2016-May-01 17:33N 35°30' E 139°44'0 0.0
2016-May-01 16:33N 35°30' E 139°44'0 0.0
2016-May-01 15:34N 35°30' E 139°44'0 0.0
2016-May-01 14:33N 35°30' E 139°44'0 0.0
2016-May-01 13:34N 35°30' E 139°44'0 0.0
2016-May-01 12:33N 35°30' E 139°44'0 0.0
2016-May-01 11:34N 35°30' E 139°44'0 0.0
2016-May-01 10:33N 35°30' E 139°44'0 0.0
2016-May-01 09:34N 35°30' E 139°44'0 0.0
2016-May-01 08:33N 35°30' E 139°44'0 0.0
2016-May-01 07:33N 35°30' E 139°44'3 2.8
2016-May-01 06:34N 35°27' E 139°43'5 4.7
2016-May-01 05:33N 35°24' E 139°39'0 0.0
2016-May-01 04:33N 35°24' E 139°39'0 0.0
2016-May-01 03:33N 35°24' E 139°39'0 0.0
2016-May-01 02:33N 35°24' E 139°39'0 0.0
2016-May-01 01:33N 35°24' E 139°39'0 0.0
2016-May-01 00:33N 35°24' E 139°39'0 0.0
2016-Apr-30 23:33N 35°24' E 139°39'0 0.0
2016-Apr-30 22:33N 35°24' E 139°39'0 0.0
2016-Apr-30 21:33N 35°24' E 139°39'0 0.1
2016-Apr-30 20:33N 35°24' E 139°39'0 0.1
2016-Apr-30 19:33N 35°24' E 139°39'0 0.0
2016-Apr-30 18:33N 35°24' E 139°39'0 0.0
2016-Apr-30 17:30N 35°24' E 139°39'0 0.0
2016-Apr-30 16:33N 35°24' E 139°39'0 0.0
2016-Apr-30 15:33N 35°24' E 139°39'0 0.0
2016-Apr-30 14:33N 35°24' E 139°39'0 0.0
2016-Apr-30 13:33N 35°24' E 139°39'0 0.0
2016-Apr-30 12:33N 35°24' E 139°39'0 0.0
2016-Apr-30 11:30N 35°24' E 139°39'0 0.0
2016-Apr-30 10:33N 35°24' E 139°39'0 0.0
2016-Apr-30 09:27N 35°24' E 139°39'0 0.0
2016-Apr-30 08:30N 35°24' E 139°39'0 0.0
2016-Apr-30 07:33N 35°24' E 139°39'0 0.0
2016-Apr-30 06:33N 35°24' E 139°39'0 0.0
2016-Apr-30 05:33N 35°24' E 139°39'0 0.0
2016-Apr-30 04:33N 35°24' E 139°39'0 0.0
2016-Apr-30 03:33N 35°24' E 139°39'0 0.0
2016-Apr-30 02:33N 35°24' E 139°39'0 0.0
2016-Apr-30 01:33N 35°24' E 139°39'0 0.0
2016-Apr-30 00:33N 35°24' E 139°39'0 0.0
2016-Apr-29 23:33N 35°24' E 139°39'0 0.0
2016-Apr-29 22:33N 35°24' E 139°39'0 0.0
2016-Apr-29 21:33N 35°24' E 139°39'0 0.0
2016-Apr-29 20:33N 35°24' E 139°39'0 0.0
2016-Apr-29 19:33N 35°24' E 139°39'0 0.0
2016-Apr-29 18:33N 35°24' E 139°39'0 0.0
2016-Apr-29 17:33N 35°24' E 139°39'0 0.0
2016-Apr-29 16:33N 35°24' E 139°39'0 0.0
2016-Apr-29 15:33N 35°24' E 139°39'0 0.0
2016-Apr-29 14:33N 35°24' E 139°39'0 0.0
2016-Apr-29 13:33N 35°24' E 139°39'0 0.0
2016-Apr-29 12:33N 35°24' E 139°39'0 0.0
2016-Apr-29 11:30N 35°24' E 139°39'0 0.0
2016-Apr-29 10:30N 35°24' E 139°39'0 0.0
2016-Apr-29 09:33N 35°24' E 139°39'0 0.0
2016-Apr-29 08:33N 35°24' E 139°39'0 0.0
2016-Apr-29 07:33N 35°24' E 139°39'0 0.0
2016-Apr-29 06:33N 35°24' E 139°39'0 0.0
2016-Apr-29 05:33N 35°24' E 139°39'0 0.0
2016-Apr-29 04:33N 35°24' E 139°39'0 0.0
2016-Apr-29 03:33N 35°24' E 139°39'0 0.0
2016-Apr-29 02:33N 35°24' E 139°39'0 0.0
2016-Apr-29 01:33N 35°24' E 139°39'0 0.0
2016-Apr-29 00:33N 35°24' E 139°39'0 0.0
2016-Apr-28 23:33N 35°24' E 139°39'0 0.0
2016-Apr-28 22:33N 35°24' E 139°39'0 0.0
2016-Apr-28 21:33N 35°24' E 139°39'0 0.0
2016-Apr-28 20:33N 35°24' E 139°39'0 0.0
2016-Apr-28 19:33N 35°24' E 139°39'0 0.0
2016-Apr-28 18:33N 35°24' E 139°39'0 0.0
2016-Apr-28 17:33N 35°24' E 139°39'0 0.0
2016-Apr-28 16:33N 35°24' E 139°39'0 0.0
2016-Apr-28 15:33N 35°24' E 139°39'0 0.0
2016-Apr-28 14:33N 35°24' E 139°39'0 0.0
2016-Apr-28 13:33N 35°24' E 139°39'0 0.0
2016-Apr-28 12:33N 35°24' E 139°39'0 0.0
2016-Apr-28 11:33N 35°24' E 139°39'0 0.1
2016-Apr-28 10:33N 35°24' E 139°39'0 0.1
2016-Apr-28 09:33N 35°24' E 139°39'0 0.0
2016-Apr-28 08:30N 35°24' E 139°39'0 0.0
2016-Apr-28 07:33N 35°24' E 139°39'0 0.0
2016-Apr-28 06:33N 35°24' E 139°39'0 0.0
2016-Apr-28 05:33N 35°24' E 139°39'0 0.0
2016-Apr-28 04:33N 35°24' E 139°39'0 0.0
2016-Apr-28 03:33N 35°24' E 139°39'0 0.0
2016-Apr-28 02:33N 35°24' E 139°39'0 0.0
2016-Apr-28 01:30N 35°24' E 139°39'0 0.0
2016-Apr-28 00:33N 35°24' E 139°39'0 0.0
2016-Apr-27 23:33N 35°24' E 139°39'0 0.0
2016-Apr-27 22:33N 35°24' E 139°39'0 0.0
2016-Apr-27 21:33N 35°24' E 139°39'0 0.0
2016-Apr-27 20:33N 35°24' E 139°39'0 0.0
2016-Apr-27 19:33N 35°24' E 139°39'0 0.0
2016-Apr-27 18:33N 35°24' E 139°39'0 0.0
2016-Apr-27 17:33N 35°24' E 139°39'0 0.0
2016-Apr-27 16:33N 35°24' E 139°39'0 0.1
2016-Apr-27 15:33N 35°24' E 139°39'0 0.0
2016-Apr-27 14:33N 35°24' E 139°39'0 0.0
2016-Apr-27 13:33N 35°24' E 139°39'0 0.0
2016-Apr-27 12:33N 35°24' E 139°39'0 0.0
2016-Apr-27 11:33N 35°24' E 139°39'0 0.0
2016-Apr-27 10:33N 35°24' E 139°39'0 0.0
2016-Apr-27 09:33N 35°24' E 139°39'0 0.0
2016-Apr-27 08:33N 35°24' E 139°39'0 0.0
2016-Apr-27 07:33N 35°24' E 139°39'0 0.0
2016-Apr-27 06:33N 35°24' E 139°39'1 1.2
2016-Apr-27 05:31N 35°24' E 139°40'0 0.0
2016-Apr-27 04:31N 35°24' E 139°40'0 0.0
2016-Apr-27 03:31N 35°24' E 139°40'0 0.0
2016-Apr-27 02:31N 35°24' E 139°40'0 0.0
2016-Apr-27 01:31N 35°24' E 139°40'0 0.0
2016-Apr-27 00:31N 35°24' E 139°40'0 0.1
2016-Apr-26 23:33N 35°24' E 139°40'8 7.8
2016-Apr-26 22:33N 35°28' E 139°49'5 4.7
2016-Apr-26 21:33N 35°29' E 139°54'0 0.0
2016-Apr-26 20:33N 35°29' E 139°54'0 0.1
2016-Apr-26 19:33N 35°29' E 139°54'2 2.5
2016-Apr-26 18:34N 35°29' E 139°57'2 1.7
2016-Apr-26 17:33N 35°27' E 139°58'0 0.0
2016-Apr-26 16:28N 35°27' E 139°58'0 0.0
2016-Apr-26 15:34N 35°27' E 139°58'0 0.0
2016-Apr-26 14:34N 35°27' E 139°58'7 6.6
2016-Apr-26 13:33N 35°27' E 139°50'1010.0
2016-Apr-26 12:34N 35°24' E 139°39'0 0.0
2016-Apr-26 11:31N 35°24' E 139°39'0 0.0
2016-Apr-26 10:31N 35°24' E 139°39'  
Track history (hours):
 
Tides and Currents Weather Stations Pressure Air Temp Water Temp Dewpoint Dewpoint Depression Visibility Wind Speed Wind Dir Waves Ship Positions

Jp Tsubaki

Last reported at 2016-May-06 09:33 UTC. Time now 2016-May-27 12:16 UTC.
Position N 34°35' E 134°54'.
Warning: this ship's position is 21 days out of date.

Length 115 m; draft 4.8 m.

Type: Cargo ship. MMSI: 431000734.

Date/timePositionNaut miles runAvg speedWind from/ knotsBaromVisibWave heightAir tempDewpointWater temp
2016-May-06 09:33N 34°35' E 134°54'1010.1
2016-May-06 08:34N 34°31' E 135°05'1514.3
2016-May-06 07:31N 34°17' E 134°59'1212.7
2016-May-06 06:33N 34°05' E 134°59'22310.1
2016-May-05 08:29N 34°54' E 139°23'1112.1
2016-May-05 07:33N 35°01' E 139°33'1212.2
2016-May-05 06:33N 35°09' E 139°45'1110.9
2016-May-05 05:33N 35°19' E 139°43'6 5.8
2016-May-05 04:33N 35°24' E 139°39'0 0.0
2016-May-05 03:32N 35°24' E 139°39'0 0.0
2016-May-05 02:32N 35°24' E 139°39'0 0.0
2016-May-05 01:32N 35°24' E 139°39'0 0.0
2016-May-05 00:32N 35°24' E 139°39'0 0.2
2016-May-04 23:34N 35°24' E 139°38'9 9.1
2016-May-04 22:31N 35°26' E 139°50'0 0.1
2016-May-04 21:31N 35°26' E 139°50'0 0.0
2016-May-04 20:21N 35°26' E 139°50'0 0.0
2016-May-04 19:33N 35°26' E 139°50'0 0.0
2016-May-04 18:33N 35°26' E 139°50'0 0.0
2016-May-04 17:29N 35°26' E 139°50'0 0.1
2016-May-04 16:32N 35°26' E 139°50'0 0.1
2016-May-04 15:33N 35°26' E 139°50'0 0.0
2016-May-04 14:31N 35°26' E 139°50'0 0.1
2016-May-04 13:28N 35°26' E 139°50'0 0.0
2016-May-04 12:32N 35°26' E 139°50'0 0.0
2016-May-04 11:34N 35°26' E 139°50'0 0.0
2016-May-04 10:28N 35°26' E 139°50'0 0.1
2016-May-04 09:34N 35°26' E 139°50'0 0.0
2016-May-04 08:26N 35°26' E 139°50'0 0.0
2016-May-04 07:33N 35°26' E 139°50'0 0.1
2016-May-04 06:26N 35°26' E 139°50'0 0.0
2016-May-04 05:29N 35°26' E 139°50'0 0.0
2016-May-04 04:33N 35°26' E 139°50'0 0.0
2016-May-04 03:33N 35°26' E 139°50'0 0.1
2016-May-04 02:33N 35°26' E 139°50'0 0.0
2016-May-04 01:31N 35°26' E 139°50'0 0.0
2016-May-04 00:32N 35°26' E 139°50'0 0.0
2016-May-03 23:28N 35°26' E 139°50'0 0.1
2016-May-03 22:25N 35°26' E 139°50'0 0.2
2016-May-03 21:32N 35°26' E 139°50'0 0.1
2016-May-03 20:33N 35°26' E 139°50'0 0.0
2016-May-03 19:27N 35°26' E 139°50'0 0.1
2016-May-03 18:34N 35°26' E 139°50'0 0.1
2016-May-03 17:32N 35°26' E 139°50'0 0.0
2016-May-03 16:31N 35°26' E 139°50'0 0.1
2016-May-03 15:33N 35°26' E 139°50'9 9.2
2016-May-03 14:33N 35°24' E 139°39'0 0.3
2016-May-03 13:33N 35°24' E 139°39'0 0.0
2016-May-03 12:33N 35°24' E 139°39'0 0.0
2016-May-03 11:30N 35°24' E 139°39'0 0.0
2016-May-03 10:30N 35°24' E 139°39'0 0.0
2016-May-03 09:33N 35°24' E 139°39'0 0.0
2016-May-03 08:33N 35°24' E 139°39'5 5.0
2016-May-03 07:33N 35°26' E 139°44'4 4.3
2016-May-03 06:33N 35°30' E 139°44'0 0.1
2016-May-03 05:31N 35°30' E 139°44'0 0.0
2016-May-03 04:28N 35°30' E 139°44'0 0.0
2016-May-03 03:31N 35°30' E 139°44'0 0.0
2016-May-03 02:31N 35°30' E 139°44'0 0.0
2016-May-03 01:31N 35°30' E 139°44'0 0.0
2016-May-03 00:31N 35°30' E 139°44'2 2.4
2016-May-02 23:33N 35°28' E 139°42'5 5.0
2016-May-02 22:33N 35°24' E 139°39'0 0.0
2016-May-02 21:31N 35°24' E 139°39'0 0.1
2016-May-02 20:31N 35°24' E 139°39'0 0.1
2016-May-02 19:31N 35°24' E 139°39'0 0.0
2016-May-02 18:31N 35°24' E 139°39'0 0.0
2016-May-02 17:28N 35°24' E 139°39'0 0.0
2016-May-02 16:31N 35°24' E 139°39'0 0.0
2016-May-02 15:31N 35°24' E 139°39'0 0.0
2016-May-02 14:31N 35°24' E 139°39'0 0.0
2016-May-02 13:31N 35°24' E 139°39'0 0.0
2016-May-02 12:31N 35°24' E 139°39'0 0.0
2016-May-02 11:31N 35°24' E 139°39'0 0.0
2016-May-02 10:31N 35°24' E 139°39'0 0.0
2016-May-02 09:31N 35°24' E 139°39'0 0.0
2016-May-02 08:31N 35°24' E 139°39'0 0.0
2016-May-02 07:31N 35°24' E 139°39'0 0.0
2016-May-02 06:31N 35°24' E 139°39'0 0.0
2016-May-02 05:33N 35°24' E 139°39'6 6.0
2016-May-02 04:34N 35°27' E 139°45'3 3.5
2016-May-02 03:34N 35°30' E 139°44'0 0.0
2016-May-02 02:33N 35°30' E 139°44'0 0.0
2016-May-02 01:34N 35°30' E 139°44'0 0.0
2016-May-02 00:34N 35°30' E 139°44'0 0.0
2016-May-01 23:33N 35°30' E 139°44'0 0.0
2016-May-01 22:34N 35°30' E 139°44'0 0.0
2016-May-01 21:34N 35°30' E 139°44'0 0.0
2016-May-01 20:34N 35°30' E 139°44'0 0.0
2016-May-01 19:34N 35°30' E 139°44'0 0.0
2016-May-01 18:34N 35°30' E 139°44'0 0.0
2016-May-01 17:33N 35°30' E 139°44'0 0.0
2016-May-01 16:33N 35°30' E 139°44'0 0.0
2016-May-01 15:34N 35°30' E 139°44'0 0.0
2016-May-01 14:33N 35°30' E 139°44'0 0.0
2016-May-01 13:34N 35°30' E 139°44'0 0.0
2016-May-01 12:33N 35°30' E 139°44'0 0.0
2016-May-01 11:34N 35°30' E 139°44'0 0.0
2016-May-01 10:33N 35°30' E 139°44'0 0.0
2016-May-01 09:34N 35°30' E 139°44'0 0.0
2016-May-01 08:33N 35°30' E 139°44'0 0.0
2016-May-01 07:33N 35°30' E 139°44'3 2.8
2016-May-01 06:34N 35°27' E 139°43'5 4.7
2016-May-01 05:33N 35°24' E 139°39'0 0.0
2016-May-01 04:33N 35°24' E 139°39'0 0.0
2016-May-01 03:33N 35°24' E 139°39'0 0.0
2016-May-01 02:33N 35°24' E 139°39'0 0.0
2016-May-01 01:33N 35°24' E 139°39'0 0.0
2016-May-01 00:33N 35°24' E 139°39'0 0.0
2016-Apr-30 23:33N 35°24' E 139°39'0 0.0
2016-Apr-30 22:33N 35°24' E 139°39'0 0.0
2016-Apr-30 21:33N 35°24' E 139°39'0 0.1
2016-Apr-30 20:33N 35°24' E 139°39'0 0.1
2016-Apr-30 19:33N 35°24' E 139°39'0 0.0
2016-Apr-30 18:33N 35°24' E 139°39'0 0.0
2016-Apr-30 17:30N 35°24' E 139°39'0 0.0
2016-Apr-30 16:33N 35°24' E 139°39'0 0.0
2016-Apr-30 15:33N 35°24' E 139°39'0 0.0
2016-Apr-30 14:33N 35°24' E 139°39'0 0.0
2016-Apr-30 13:33N 35°24' E 139°39'0 0.0
2016-Apr-30 12:33N 35°24' E 139°39'0 0.0
2016-Apr-30 11:30N 35°24' E 139°39'0 0.0
2016-Apr-30 10:33N 35°24' E 139°39'0 0.0
2016-Apr-30 09:27N 35°24' E 139°39'0 0.0
2016-Apr-30 08:30N 35°24' E 139°39'0 0.0
2016-Apr-30 07:33N 35°24' E 139°39'0 0.0
2016-Apr-30 06:33N 35°24' E 139°39'0 0.0
2016-Apr-30 05:33N 35°24' E 139°39'0 0.0
2016-Apr-30 04:33N 35°24' E 139°39'0 0.0
2016-Apr-30 03:33N 35°24' E 139°39'0 0.0
2016-Apr-30 02:33N 35°24' E 139°39'0 0.0
2016-Apr-30 01:33N 35°24' E 139°39'0 0.0
2016-Apr-30 00:33N 35°24' E 139°39'0 0.0
2016-Apr-29 23:33N 35°24' E 139°39'0 0.0
2016-Apr-29 22:33N 35°24' E 139°39'0 0.0
2016-Apr-29 21:33N 35°24' E 139°39'0 0.0
2016-Apr-29 20:33N 35°24' E 139°39'0 0.0
2016-Apr-29 19:33N 35°24' E 139°39'0 0.0
2016-Apr-29 18:33N 35°24' E 139°39'0 0.0
2016-Apr-29 17:33N 35°24' E 139°39'0 0.0
2016-Apr-29 16:33N 35°24' E 139°39'0 0.0
2016-Apr-29 15:33N 35°24' E 139°39'0 0.0
2016-Apr-29 14:33N 35°24' E 139°39'0 0.0
2016-Apr-29 13:33N 35°24' E 139°39'0 0.0
2016-Apr-29 12:33N 35°24' E 139°39'0 0.0
2016-Apr-29 11:30N 35°24' E 139°39'0 0.0
2016-Apr-29 10:30N 35°24' E 139°39'0 0.0
2016-Apr-29 09:33N 35°24' E 139°39'0 0.0
2016-Apr-29 08:33N 35°24' E 139°39'0 0.0
2016-Apr-29 07:33N 35°24' E 139°39'0 0.0
2016-Apr-29 06:33N 35°24' E 139°39'0 0.0
2016-Apr-29 05:33N 35°24' E 139°39'0 0.0
2016-Apr-29 04:33N 35°24' E 139°39'0 0.0
2016-Apr-29 03:33N 35°24' E 139°39'0 0.0
2016-Apr-29 02:33N 35°24' E 139°39'0 0.0
2016-Apr-29 01:33N 35°24' E 139°39'0 0.0
2016-Apr-29 00:33N 35°24' E 139°39'0 0.0
2016-Apr-28 23:33N 35°24' E 139°39'0 0.0
2016-Apr-28 22:33N 35°24' E 139°39'0 0.0
2016-Apr-28 21:33N 35°24' E 139°39'0 0.0
2016-Apr-28 20:33N 35°24' E 139°39'0 0.0
2016-Apr-28 19:33N 35°24' E 139°39'0 0.0
2016-Apr-28 18:33N 35°24' E 139°39'0 0.0
2016-Apr-28 17:33N 35°24' E 139°39'0 0.0
2016-Apr-28 16:33N 35°24' E 139°39'0 0.0
2016-Apr-28 15:33N 35°24' E 139°39'0 0.0
2016-Apr-28 14:33N 35°24' E 139°39'0 0.0
2016-Apr-28 13:33N 35°24' E 139°39'0 0.0
2016-Apr-28 12:33N 35°24' E 139°39'0 0.0
2016-Apr-28 11:33N 35°24' E 139°39'0 0.1
2016-Apr-28 10:33N 35°24' E 139°39'0 0.1
2016-Apr-28 09:33N 35°24' E 139°39'0 0.0
2016-Apr-28 08:30N 35°24' E 139°39'0 0.0
2016-Apr-28 07:33N 35°24' E 139°39'0 0.0
2016-Apr-28 06:33N 35°24' E 139°39'0 0.0
2016-Apr-28 05:33N 35°24' E 139°39'0 0.0
2016-Apr-28 04:33N 35°24' E 139°39'0 0.0
2016-Apr-28 03:33N 35°24' E 139°39'0 0.0
2016-Apr-28 02:33N 35°24' E 139°39'0 0.0
2016-Apr-28 01:30N 35°24' E 139°39'0 0.0
2016-Apr-28 00:33N 35°24' E 139°39'0 0.0
2016-Apr-27 23:33N 35°24' E 139°39'0 0.0
2016-Apr-27 22:33N 35°24' E 139°39'0 0.0
2016-Apr-27 21:33N 35°24' E 139°39'0 0.0
2016-Apr-27 20:33N 35°24' E 139°39'0 0.0
2016-Apr-27 19:33N 35°24' E 139°39'0 0.0
2016-Apr-27 18:33N 35°24' E 139°39'0 0.0
2016-Apr-27 17:33N 35°24' E 139°39'0 0.0
2016-Apr-27 16:33N 35°24' E 139°39'0 0.1
2016-Apr-27 15:33N 35°24' E 139°39'0 0.0
2016-Apr-27 14:33N 35°24' E 139°39'0 0.0
2016-Apr-27 13:33N 35°24' E 139°39'0 0.0
2016-Apr-27 12:33N 35°24' E 139°39'0 0.0
2016-Apr-27 11:33N 35°24' E 139°39'0 0.0
2016-Apr-27 10:33N 35°24' E 139°39'0 0.0
2016-Apr-27 09:33N 35°24' E 139°39'0 0.0
2016-Apr-27 08:33N 35°24' E 139°39'0 0.0
2016-Apr-27 07:33N 35°24' E 139°39'0 0.0
2016-Apr-27 06:33N 35°24' E 139°39'1 1.2
2016-Apr-27 05:31N 35°24' E 139°40'0 0.0
2016-Apr-27 04:31N 35°24' E 139°40'0 0.0
2016-Apr-27 03:31N 35°24' E 139°40'0 0.0
2016-Apr-27 02:31N 35°24' E 139°40'0 0.0
2016-Apr-27 01:31N 35°24' E 139°40'0 0.0
2016-Apr-27 00:31N 35°24' E 139°40'0 0.1
2016-Apr-26 23:33N 35°24' E 139°40'8 7.8
2016-Apr-26 22:33N 35°28' E 139°49'5 4.7
2016-Apr-26 21:33N 35°29' E 139°54'0 0.0
2016-Apr-26 20:33N 35°29' E 139°54'0 0.1
2016-Apr-26 19:33N 35°29' E 139°54'2 2.5
2016-Apr-26 18:34N 35°29' E 139°57'2 1.7
2016-Apr-26 17:33N 35°27' E 139°58'0 0.0
2016-Apr-26 16:28N 35°27' E 139°58'0 0.0
2016-Apr-26 15:34N 35°27' E 139°58'0 0.0
2016-Apr-26 14:34N 35°27' E 139°58'7 6.6
2016-Apr-26 13:33N 35°27' E 139°50'1010.0
2016-Apr-26 12:34N 35°24' E 139°39'0 0.0
2016-Apr-26 11:31N 35°24' E 139°39'0 0.0
2016-Apr-26 10:31N 35°24' E 139°39'  

Dump ship's entire track history